createdAt,value
2022-11-09T00:01:04.529Z,24.00
2022-11-09T00:03:31.962Z,24.50
2022-11-09T00:06:00.057Z,24.90
2022-11-09T00:08:27.279Z,25.20
2022-11-09T00:10:54.233Z,25.60
2022-11-09T00:13:22.475Z,25.50
2022-11-09T00:15:49.598Z,25.80
2022-11-09T00:18:16.636Z,26.10
2022-11-09T00:20:47.508Z,26.40
2022-11-09T00:23:16.358Z,26.30
2022-11-09T00:25:43.561Z,26.10
2022-11-09T00:28:17.874Z,26.30
2022-11-09T00:30:44.913Z,27.00
2022-11-09T00:33:12.411Z,27.60
2022-11-09T00:35:39.732Z,28.10
2022-11-09T00:38:06.715Z,27.50
2022-11-09T00:40:33.634Z,27.80
2022-11-09T00:43:00.666Z,27.40
2022-11-09T00:45:27.543Z,27.70
2022-11-09T00:47:54.416Z,27.50
2022-11-09T00:50:21.369Z,26.90
2022-11-09T00:52:48.643Z,26.50
2022-11-09T00:55:15.728Z,25.80
2022-11-09T00:57:42.636Z,25.80
2022-11-09T01:00:10.278Z,26.10
2022-11-09T01:02:37.151Z,26.50
2022-11-09T01:05:04.557Z,26.90
2022-11-09T01:07:31.898Z,26.70
2022-11-09T01:09:58.890Z,27.00
2022-11-09T01:12:25.874Z,27.40
2022-11-09T01:14:52.864Z,26.90
2022-11-09T01:17:20.029Z,26.60
2022-11-09T01:19:47.006Z,26.70
2022-11-09T01:22:13.921Z,26.60
2022-11-09T01:24:40.910Z,26.80
2022-11-09T01:27:08.027Z,27.70
2022-11-09T01:29:34.969Z,27.60
2022-11-09T01:32:03.633Z,27.20
2022-11-09T01:34:32.059Z,27.30
2022-11-09T01:36:59.309Z,27.60
2022-11-09T01:39:26.303Z,27.60
2022-11-09T01:41:53.263Z,28.00
2022-11-09T01:44:20.831Z,28.10
2022-11-09T01:47:23.629Z,28.10
2022-11-09T01:49:56.018Z,28.50
2022-11-09T01:52:35.239Z,28.20
2022-11-09T01:55:09.360Z,28.50
2022-11-09T01:57:47.667Z,29.00
2022-11-09T02:00:17.133Z,29.40
2022-11-09T02:02:49.532Z,29.00
2022-11-09T02:05:18.766Z,29.80
2022-11-09T02:07:45.962Z,29.80
2022-11-09T02:10:24.246Z,30.00
2022-11-09T02:12:53.503Z,31.10
2022-11-09T02:15:21.999Z,32.10
2022-11-09T02:17:52.547Z,34.00
2022-11-09T02:20:20.157Z,34.40
2022-11-09T02:22:47.159Z,35.50
2022-11-09T02:25:15.960Z,35.60
2022-11-09T02:27:44.190Z,34.90
2022-11-09T02:30:12.468Z,34.60
2022-11-09T02:32:39.523Z,34.90
2022-11-09T02:35:07.200Z,36.00
2022-11-09T02:37:48.746Z,36.90
2022-11-09T02:40:22.882Z,35.00
2022-11-09T02:42:49.929Z,34.20
2022-11-09T02:45:17.129Z,35.00
2022-11-09T02:47:44.030Z,34.80
2022-11-09T02:50:12.080Z,34.80
2022-11-09T02:52:39.105Z,34.40
2022-11-09T02:55:07.587Z,33.80
2022-11-09T02:57:34.458Z,34.00
2022-11-09T03:00:04.127Z,34.80
2022-11-09T03:02:32.419Z,35.80
2022-11-09T03:04:59.520Z,36.10
2022-11-09T03:07:27.234Z,36.20
2022-11-09T03:09:54.117Z,37.70
2022-11-09T03:12:30.195Z,37.90
2022-11-09T03:15:01.881Z,38.90
2022-11-09T03:17:29.276Z,39.80
2022-11-09T03:19:56.228Z,40.80
2022-11-09T03:22:23.203Z,41.60
2022-11-09T03:24:50.311Z,40.50
2022-11-09T03:27:17.471Z,42.00
2022-11-09T03:29:44.580Z,42.40
2022-11-09T03:32:11.599Z,42.80
2022-11-09T03:34:38.512Z,43.60
2022-11-09T03:37:05.429Z,43.70
2022-11-09T03:39:34.659Z,43.80
2022-11-09T03:42:01.911Z,43.50
2022-11-09T03:44:28.937Z,43.20
2022-11-09T03:46:55.830Z,44.00
2022-11-09T03:49:23.948Z,45.00
2022-11-09T03:51:51.789Z,46.40
2022-11-09T03:54:18.775Z,45.40
2022-11-09T03:56:45.892Z,46.70
2022-11-09T03:59:12.830Z,46.80
2022-11-09T04:01:39.924Z,46.80
2022-11-09T04:04:06.948Z,47.70
2022-11-09T04:06:33.989Z,47.70
2022-11-09T04:09:00.924Z,47.50
2022-11-09T04:11:27.867Z,46.20
2022-11-09T04:13:54.720Z,45.20
2022-11-09T04:16:21.655Z,44.30
2022-11-09T04:18:48.673Z,44.50
2022-11-09T04:21:18.119Z,44.20
2022-11-09T04:23:50.114Z,45.00
2022-11-09T04:26:17.056Z,46.20
2022-11-09T04:28:43.983Z,45.40
2022-11-09T04:31:10.941Z,44.90
2022-11-09T04:33:37.835Z,46.00
2022-11-09T04:36:05.466Z,47.20
2022-11-09T04:38:32.558Z,47.80
2022-11-09T04:41:04.659Z,48.40
2022-11-09T04:43:34.844Z,48.10
2022-11-09T04:46:03.561Z,47.50
2022-11-09T04:48:33.618Z,48.00
2022-11-09T04:51:10.631Z,47.10
2022-11-09T04:53:38.973Z,47.30
2022-11-09T04:56:07.738Z,47.80
2022-11-09T04:58:34.963Z,49.00
2022-11-09T05:01:06.440Z,50.00
2022-11-09T05:03:33.828Z,50.20
2022-11-09T05:06:00.743Z,50.20
2022-11-09T05:08:28.077Z,51.00
2022-11-09T05:10:58.382Z,51.90
2022-11-09T05:13:25.635Z,53.50
2022-11-09T05:15:52.594Z,55.00
2022-11-09T05:18:19.473Z,54.90
2022-11-09T05:20:46.497Z,57.30
2022-11-09T05:23:32.117Z,57.70
2022-11-09T05:25:59.028Z,58.40
2022-11-09T05:28:25.920Z,58.90
2022-11-09T05:30:52.966Z,57.90
2022-11-09T05:33:20.211Z,56.90
2022-11-09T05:35:47.310Z,57.40
2022-11-09T05:38:14.368Z,55.30
2022-11-09T05:40:41.364Z,52.80
2022-11-09T05:43:09.331Z,50.00
2022-11-09T05:45:42.431Z,50.00
2022-11-09T05:48:11.134Z,50.10
2022-11-09T05:50:39.075Z,50.90
2022-11-09T05:53:06.173Z,52.40
2022-11-09T05:55:33.753Z,53.90
2022-11-09T05:58:01.068Z,54.60
2022-11-09T06:00:28.507Z,55.00
2022-11-09T06:03:05.406Z,57.40
2022-11-09T06:05:37.150Z,59.80
2022-11-09T06:08:16.028Z,56.80
2022-11-09T06:10:43.432Z,54.00
2022-11-09T06:13:11.778Z,56.00
2022-11-09T06:15:38.694Z,58.40
2022-11-09T06:18:07.745Z,59.60
2022-11-09T06:20:35.262Z,59.70
2022-11-09T06:23:04.379Z,60.20
2022-11-09T06:25:32.737Z,57.30
2022-11-09T06:27:59.864Z,56.10
2022-11-09T06:30:26.801Z,56.30
2022-11-09T06:33:02.128Z,57.60
2022-11-09T06:35:31.451Z,58.90
2022-11-09T06:37:59.953Z,59.60
2022-11-09T06:40:28.137Z,62.50
2022-11-09T06:42:59.324Z,64.50
2022-11-09T06:45:27.673Z,66.10
2022-11-09T06:48:03.086Z,67.40
2022-11-09T06:50:33.729Z,68.10
2022-11-09T06:53:02.586Z,68.30
2022-11-09T06:55:30.728Z,68.70
2022-11-09T06:57:58.531Z,68.80
2022-11-09T07:00:26.966Z,71.80
2022-11-09T07:02:54.205Z,73.90
2022-11-09T07:05:22.720Z,74.30
2022-11-09T07:07:49.688Z,78.10
2022-11-09T07:10:16.961Z,80.60
2022-11-09T07:12:44.165Z,79.80
2022-11-09T07:15:12.329Z,82.10
2022-11-09T07:17:40.290Z,82.70
2022-11-09T07:20:09.332Z,82.80
2022-11-09T07:22:39.597Z,82.80
2022-11-09T07:25:11.685Z,82.80
2022-11-09T07:27:40.320Z,81.80
2022-11-09T07:30:08.327Z,80.20
2022-11-09T07:33:08.807Z,79.30
2022-11-09T07:35:27.168Z,75.80
2022-11-09T07:37:54.149Z,74.30
2022-11-09T07:40:21.292Z,72.50
2022-11-09T07:42:48.176Z,72.20
2022-11-09T07:45:15.282Z,70.00
2022-11-09T07:47:42.287Z,69.80
2022-11-09T07:50:09.765Z,67.80
2022-11-09T07:52:36.827Z,67.50
2022-11-09T07:55:04.157Z,66.70
2022-11-09T07:57:31.225Z,66.50
2022-11-09T07:59:59.307Z,66.80
2022-11-09T08:02:27.618Z,67.20
2022-11-09T08:04:54.685Z,66.90
2022-11-09T08:07:23.661Z,67.10
2022-11-09T08:09:50.576Z,64.60
2022-11-09T08:12:17.517Z,61.60
2022-11-09T08:14:44.485Z,59.10
2022-11-09T08:17:11.426Z,59.30
2022-11-09T08:19:38.417Z,60.70
2022-11-09T08:22:05.525Z,61.70
2022-11-09T08:24:32.624Z,63.20
2022-11-09T08:26:59.645Z,59.80
2022-11-09T08:29:26.569Z,47.60
2022-11-09T08:31:53.615Z,39.90
2022-11-09T08:34:20.721Z,35.20
2022-11-09T08:36:47.636Z,28.50
2022-11-09T08:39:14.634Z,27.80
2022-11-09T08:41:41.613Z,29.70
2022-11-09T08:44:08.478Z,27.30
2022-11-09T08:46:40.810Z,23.50
2022-11-09T08:49:08.316Z,25.30
2022-11-09T08:51:35.201Z,24.30
2022-11-09T08:54:03.340Z,24.10
2022-11-09T08:56:30.610Z,22.30
2022-11-09T08:58:57.532Z,24.20
2022-11-09T09:01:25.532Z,20.70
2022-11-09T09:03:52.586Z,17.00
2022-11-09T09:06:19.551Z,18.80
2022-11-09T09:08:46.598Z,17.60
2022-11-09T09:11:13.619Z,19.60
2022-11-09T09:13:43.521Z,24.90
2022-11-09T09:16:15.566Z,23.40
2022-11-09T09:18:42.854Z,21.90
2022-11-09T09:21:11.144Z,21.80
2022-11-09T09:23:38.157Z,21.60
2022-11-09T09:26:05.745Z,21.00
2022-11-09T09:28:33.218Z,17.90
2022-11-09T09:31:01.101Z,20.60
2022-11-09T09:33:28.684Z,18.70
2022-11-09T09:35:57.858Z,17.60
2022-11-09T09:38:28.746Z,14.20
2022-11-09T09:41:06.113Z,12.80
2022-11-09T09:43:46.351Z,9.70
2022-11-09T09:46:32.181Z,8.40
2022-11-09T09:49:12.714Z,9.20
2022-11-09T09:51:48.446Z,6.50
2022-11-09T09:54:26.100Z,5.60
2022-11-09T09:56:57.441Z,8.00
2022-11-09T09:59:36.913Z,5.20
2022-11-09T10:02:06.524Z,10.20
2022-11-09T10:04:40.208Z,10.20
2022-11-09T10:07:56.065Z,6.30
2022-11-09T10:10:52.895Z,6.10
2022-11-09T10:14:04.354Z,6.40
2022-11-09T10:17:19.192Z,7.30
2022-11-09T10:20:18.089Z,4.20
2022-11-09T10:23:21.050Z,4.90
2022-11-09T10:26:14.433Z,2.30
2022-11-09T10:29:13.793Z,2.00
2022-11-09T10:31:34.484Z,1.60
2022-11-09T10:34:26.460Z,3.00
2022-11-09T10:37:13.823Z,2.10
2022-11-09T10:39:47.199Z,1.00
2022-11-09T10:42:14.146Z,1.00
2022-11-09T10:44:41.039Z,1.00
2022-11-09T10:47:16.877Z,1.00
2022-11-09T10:49:44.774Z,1.00
2022-11-09T10:52:46.000Z,1.00
2022-11-09T10:55:25.159Z,1.00
2022-11-09T10:57:56.933Z,1.00
2022-11-09T11:00:24.085Z,1.00
2022-11-09T11:02:52.194Z,1.00
2022-11-09T11:05:28.339Z,1.00
2022-11-09T11:07:55.412Z,1.00
2022-11-09T11:10:25.340Z,1.00
2022-11-09T11:13:20.551Z,1.00
2022-11-09T11:15:48.229Z,1.00
2022-11-09T11:18:24.726Z,1.00
2022-11-09T11:21:19.741Z,1.00
2022-11-09T11:24:10.924Z,1.00
2022-11-09T11:27:10.189Z,1.00
2022-11-09T11:30:11.966Z,1.00
2022-11-09T11:32:39.137Z,1.00
2022-11-09T11:35:17.164Z,1.00
2022-11-09T11:38:27.972Z,1.00
2022-11-09T11:41:33.510Z,1.00
2022-11-09T11:44:33.739Z,1.00
2022-11-09T11:47:33.991Z,1.00
2022-11-09T11:50:30.726Z,1.00
2022-11-09T11:59:45.331Z,1.00
2022-11-09T12:09:00.975Z,1.00
2022-11-09T12:12:07.735Z,1.00
2022-11-09T12:15:01.868Z,1.00
2022-11-09T12:18:16.551Z,1.00
2022-11-09T12:21:15.873Z,1.00
2022-11-09T12:24:15.492Z,1.00
2022-11-09T12:27:31.739Z,1.00
2022-11-09T12:30:24.356Z,1.00
2022-11-09T12:33:00.558Z,1.00
2022-11-09T12:35:50.210Z,1.00
2022-11-09T12:38:42.573Z,1.00
2022-11-09T12:41:22.461Z,1.00
2022-11-09T12:44:05.095Z,1.00
2022-11-09T12:46:40.489Z,1.00
2022-11-09T12:49:30.421Z,1.00
2022-11-09T12:51:59.172Z,1.00
2022-11-09T12:54:27.229Z,1.00
2022-11-09T12:57:10.596Z,1.00
2022-11-09T12:59:50.283Z,1.00
2022-11-09T13:02:58.288Z,1.00
2022-11-09T13:20:53.460Z,1.00
2022-11-09T13:23:54.721Z,1.00
2022-11-09T13:26:55.467Z,1.00
2022-11-09T13:29:59.257Z,1.00
2022-11-09T13:32:29.657Z,1.00
2022-11-09T13:35:04.030Z,1.00
2022-11-09T13:37:53.948Z,1.00
2022-11-09T13:40:57.145Z,1.00
2022-11-09T13:43:33.702Z,1.00
2022-11-09T13:46:32.338Z,1.00
2022-11-09T13:48:59.472Z,1.00
2022-11-09T13:51:55.578Z,1.00
2022-11-09T13:54:34.691Z,1.00
2022-11-09T13:57:05.860Z,1.00
2022-11-09T13:59:53.088Z,1.00
2022-11-09T14:02:25.012Z,1.00
2022-11-09T14:04:52.448Z,1.00
2022-11-09T14:07:29.697Z,1.00
2022-11-09T14:10:30.759Z,1.00
2022-11-09T14:13:35.488Z,1.00
2022-11-09T14:16:32.432Z,1.00
2022-11-09T14:19:05.292Z,1.00
2022-11-09T14:21:50.822Z,1.00
2022-11-09T14:24:32.780Z,1.00
2022-11-09T14:27:09.148Z,1.00
2022-11-09T14:30:20.593Z,1.00
2022-11-09T14:32:50.690Z,1.00
2022-11-09T14:35:27.427Z,1.00
2022-11-09T14:37:55.901Z,1.00
2022-11-09T14:40:34.938Z,1.00
2022-11-09T14:43:28.720Z,1.00
2022-11-09T14:45:59.960Z,1.00
2022-11-09T14:48:29.028Z,1.00
2022-11-09T14:50:58.856Z,1.00
2022-11-09T14:53:30.130Z,1.00
2022-11-09T14:56:00.614Z,1.00
2022-11-09T14:58:32.695Z,1.00
2022-11-09T15:01:26.956Z,1.00
2022-11-09T15:04:20.290Z,1.00
2022-11-09T15:06:56.418Z,1.00
2022-11-09T15:09:35.924Z,1.00
2022-11-09T15:12:03.200Z,1.00
2022-11-09T15:14:35.340Z,1.00
2022-11-09T15:17:23.524Z,1.00
2022-11-09T15:19:57.345Z,1.00
2022-11-09T15:22:53.943Z,1.00
2022-11-09T15:26:04.149Z,1.00
2022-11-09T15:28:32.400Z,1.00
2022-11-09T15:31:13.448Z,1.00
2022-11-09T15:33:53.290Z,1.00
2022-11-09T15:36:30.551Z,1.00
2022-11-09T15:39:16.417Z,2.00
2022-11-09T15:41:43.546Z,3.70
2022-11-09T15:44:12.862Z,5.70
2022-11-09T15:46:50.377Z,6.90
2022-11-09T15:49:28.208Z,8.50
2022-11-09T15:51:56.392Z,8.90
2022-11-09T15:54:24.501Z,8.80
2022-11-09T15:56:52.169Z,9.90
2022-11-09T15:59:24.512Z,11.50
2022-11-09T16:01:51.865Z,14.30
2022-11-09T16:04:18.899Z,16.90
2022-11-09T16:06:47.008Z,18.00
2022-11-09T16:09:14.745Z,19.70
2022-11-09T16:11:41.987Z,20.90
2022-11-09T16:14:08.933Z,20.90
2022-11-09T16:16:35.888Z,22.10
2022-11-09T16:19:03.050Z,23.30
2022-11-09T16:21:30.097Z,24.60
2022-11-09T16:23:58.784Z,25.50
2022-11-09T16:26:26.391Z,26.30
2022-11-09T16:28:54.781Z,28.20
2022-11-09T16:31:41.160Z,28.60
2022-11-09T16:34:08.800Z,28.60
2022-11-09T16:36:38.911Z,28.50
2022-11-09T16:39:12.808Z,28.10
2022-11-09T16:41:41.526Z,26.10
2022-11-09T16:44:08.547Z,24.40
2022-11-09T16:46:35.598Z,24.50
2022-11-09T16:49:03.571Z,24.10
2022-11-09T16:51:31.149Z,24.10
2022-11-09T16:53:58.096Z,24.00
2022-11-09T16:56:25.082Z,25.10
2022-11-09T16:59:00.007Z,25.40
2022-11-09T17:01:27.026Z,26.30
2022-11-09T17:03:54.164Z,26.70
2022-11-09T17:06:21.219Z,28.00
2022-11-09T17:08:48.370Z,28.00
2022-11-09T17:11:15.650Z,28.10
2022-11-09T17:13:42.519Z,28.70
2022-11-09T17:16:12.009Z,29.70
2022-11-09T17:18:39.592Z,31.50
2022-11-09T17:21:11.966Z,33.00
2022-11-09T17:23:39.332Z,35.00
2022-11-09T17:26:08.747Z,35.80
2022-11-09T17:28:41.501Z,37.20
2022-11-09T17:31:18.949Z,38.20
2022-11-09T17:33:46.517Z,40.30
2022-11-09T17:36:15.437Z,42.50
2022-11-09T17:38:42.802Z,44.90
2022-11-09T17:41:14.805Z,47.60
2022-11-09T17:43:43.534Z,49.30
2022-11-09T17:46:20.138Z,48.70
2022-11-09T17:48:49.026Z,50.60
2022-11-09T17:51:18.034Z,50.10
2022-11-09T17:53:48.310Z,51.10
2022-11-09T17:56:15.274Z,49.50
2022-11-09T17:58:44.557Z,49.40
2022-11-09T18:01:17.330Z,48.50
2022-11-09T18:03:44.428Z,48.00
2022-11-09T18:06:17.968Z,46.70
2022-11-09T18:08:46.090Z,45.80
2022-11-09T18:11:16.353Z,47.90
2022-11-09T18:13:44.154Z,47.90
2022-11-09T18:16:17.498Z,47.10
2022-11-09T18:18:46.725Z,47.90
2022-11-09T18:21:21.897Z,47.90
2022-11-09T18:23:49.027Z,48.40
2022-11-09T18:26:16.190Z,47.90
2022-11-09T18:28:43.682Z,47.50
2022-11-09T18:31:13.027Z,47.90
2022-11-09T18:33:40.709Z,47.30
2022-11-09T18:36:15.156Z,47.90
2022-11-09T18:38:44.064Z,47.90
2022-11-09T18:41:18.819Z,47.30
2022-11-09T18:43:46.215Z,44.60
2022-11-09T18:46:15.749Z,45.50
2022-11-09T18:48:43.969Z,44.60
2022-11-09T18:51:12.341Z,45.00
2022-11-09T18:53:45.365Z,43.70
2022-11-09T18:56:23.498Z,43.40
2022-11-09T18:58:53.069Z,44.10
2022-11-09T19:01:23.108Z,43.70
2022-11-09T19:03:56.328Z,42.20
2022-11-09T19:06:26.405Z,42.50
2022-11-09T19:09:12.099Z,42.40
2022-11-09T19:11:39.134Z,41.40
2022-11-09T19:14:06.297Z,41.00
2022-11-09T19:16:33.364Z,41.70
2022-11-09T19:19:00.451Z,41.60
2022-11-09T19:21:49.162Z,41.80
2022-11-09T19:24:18.609Z,40.90
2022-11-09T19:26:50.698Z,40.10
2022-11-09T19:29:18.352Z,39.70
2022-11-09T19:31:45.941Z,39.20
2022-11-09T19:34:15.942Z,39.60
2022-11-09T19:36:43.585Z,40.50
2022-11-09T19:39:10.911Z,41.80
2022-11-09T19:41:37.817Z,42.20
2022-11-09T19:44:06.532Z,41.90
2022-11-09T19:46:35.301Z,41.60
2022-11-09T19:49:04.369Z,41.90
2022-11-09T19:51:31.984Z,43.40
2022-11-09T19:54:00.751Z,44.70
2022-11-09T19:56:29.509Z,44.10
2022-11-09T19:58:58.547Z,45.00
2022-11-09T20:01:26.033Z,46.50
2022-11-09T20:03:55.399Z,46.10
2022-11-09T20:06:23.668Z,46.20
2022-11-09T20:08:52.286Z,47.70
2022-11-09T20:11:41.296Z,47.70
2022-11-09T20:14:09.226Z,47.70
2022-11-09T20:16:37.234Z,47.50
2022-11-09T20:19:06.022Z,47.80
2022-11-09T20:21:33.004Z,48.60
2022-11-09T20:24:00.091Z,50.60
2022-11-09T20:26:27.186Z,52.60
2022-11-09T20:28:54.870Z,53.00
2022-11-09T20:31:22.705Z,53.70
2022-11-09T20:33:50.328Z,54.40
2022-11-09T20:36:18.928Z,53.00
2022-11-09T20:38:47.189Z,55.50
2022-11-09T20:41:14.439Z,57.30
2022-11-09T20:43:41.359Z,59.80
2022-11-09T20:46:15.928Z,59.10
2022-11-09T20:48:59.266Z,60.00
2022-11-09T20:51:26.818Z,60.00
2022-11-09T20:53:53.767Z,60.10
2022-11-09T20:56:21.714Z,60.50
2022-11-09T20:58:48.753Z,60.20
2022-11-09T21:01:21.928Z,60.70
2022-11-09T21:03:51.042Z,60.80
2022-11-09T21:06:19.313Z,61.60
2022-11-09T21:08:50.023Z,62.30
2022-11-09T21:11:17.738Z,63.90
2022-11-09T21:13:49.484Z,64.20
2022-11-09T21:16:18.113Z,64.10
2022-11-09T21:18:45.295Z,65.40
2022-11-09T21:21:18.421Z,66.00
2022-11-09T21:24:04.338Z,66.70
2022-11-09T21:26:50.354Z,68.30
2022-11-09T21:30:01.529Z,69.10
2022-11-09T21:32:30.695Z,69.80
2022-11-09T21:34:57.680Z,69.20
2022-11-09T21:37:24.764Z,70.70
2022-11-09T21:39:51.793Z,70.80
2022-11-09T21:42:18.926Z,71.40
2022-11-09T21:44:45.911Z,72.70
2022-11-09T21:47:13.294Z,71.40
2022-11-09T21:49:43.203Z,69.90
2022-11-09T21:52:10.184Z,70.30
2022-11-09T21:54:37.152Z,70.40
2022-11-09T21:57:04.288Z,70.60
2022-11-09T21:59:31.184Z,71.30
2022-11-09T22:01:58.208Z,70.70
2022-11-09T22:04:25.144Z,68.80
2022-11-09T22:06:52.110Z,69.60
2022-11-09T22:09:20.140Z,68.40
2022-11-09T22:12:05.523Z,70.40
2022-11-09T22:14:52.566Z,71.20
2022-11-09T22:17:19.525Z,71.30
2022-11-09T22:20:04.829Z,72.50
2022-11-09T22:22:33.651Z,73.00
2022-11-09T22:25:00.731Z,73.20
2022-11-09T22:27:30.656Z,74.30
2022-11-09T22:29:57.724Z,75.90
2022-11-09T22:32:25.086Z,78.40
2022-11-09T22:34:52.078Z,78.80
2022-11-09T22:37:19.022Z,81.80
2022-11-09T22:39:47.675Z,82.00
2022-11-09T22:42:14.878Z,81.50
2022-11-09T22:44:41.813Z,82.60
2022-11-09T22:47:10.763Z,83.90
2022-11-09T22:49:37.829Z,82.80
2022-11-09T22:52:05.465Z,84.10
2022-11-09T22:54:32.449Z,84.80
2022-11-09T22:56:59.598Z,85.60
2022-11-09T22:59:26.551Z,87.60
2022-11-09T23:01:55.711Z,87.60
2022-11-09T23:04:22.688Z,87.40
2022-11-09T23:06:49.628Z,89.50
2022-11-09T23:09:16.587Z,89.60
2022-11-09T23:11:43.555Z,90.20
2022-11-09T23:14:11.765Z,90.70
2022-11-09T23:16:38.756Z,90.90
2022-11-09T23:19:08.123Z,91.20
2022-11-09T23:21:36.915Z,91.70
2022-11-09T23:24:06.877Z,91.50
2022-11-09T23:26:34.239Z,91.40
2022-11-09T23:29:01.891Z,92.40
2022-11-09T23:31:28.841Z,92.60
2022-11-09T23:33:57.362Z,92.70
2022-11-09T23:36:26.237Z,92.70
2022-11-09T23:38:53.462Z,92.40
2022-11-09T23:41:20.928Z,93.20
2022-11-09T23:43:49.864Z,93.70
2022-11-09T23:46:18.086Z,93.70
2022-11-09T23:48:45.517Z,93.70
2022-11-09T23:51:12.871Z,94.00
2022-11-09T23:53:40.068Z,94.50
2022-11-09T23:56:11.738Z,94.80
2022-11-09T23:58:39.181Z,94.80
